Time;durP1;ratioP1;P1;durP2;ratioP2;P2;SDS_P1;SDS_P2;PMS_P1;PMS_P2;Temp;Humidity;BMP_temperature;BMP_pressure;BME280_temperature;BME280_humidity;BME280_pressure;Samples;Min_cycle;Max_cycle;Signal;HPM_P1;HPM_P2
2022/05/17 00:01:07;;;;;;;4.28;2.95;;;17.90;99.90;;;;;;4811354;29;20225;-83
2022/05/17 00:03:34;;;;;;;3.85;2.92;;;17.90;99.90;;;;;;4817393;29;20197;-82
2022/05/17 00:06:01;;;;;;;4.32;3.15;;;17.90;99.90;;;;;;4807623;29;20194;-84
2022/05/17 00:08:27;;;;;;;6.38;3.45;;;17.90;99.90;;;;;;4807450;29;20191;-85
2022/05/17 00:10:52;;;;;;;4.40;2.95;;;17.70;99.90;;;;;;4814522;29;20230;-81
2022/05/17 00:13:18;;;;;;;6.88;3.00;;;17.70;99.90;;;;;;4812611;29;20198;-83
2022/05/17 00:15:48;;;;;;;6.45;3.05;;;17.60;99.90;;;;;;4807231;29;20274;-82
2022/05/17 00:18:16;;;;;;;3.75;2.90;;;17.60;99.90;;;;;;4810862;29;20682;-82
2022/05/17 00:20:43;;;;;;;5.53;2.97;;;17.60;99.90;;;;;;4810722;29;20226;-84
2022/05/17 00:23:11;;;;;;;6.43;3.38;;;17.50;99.90;;;;;;4807131;29;20683;-83
2022/05/17 00:25:38;;;;;;;4.88;3.42;;;17.50;99.90;;;;;;4806885;29;20650;-90
2022/05/17 00:28:05;;;;;;;7.32;3.92;;;17.50;99.90;;;;;;4820898;29;20205;-84
2022/05/17 00:30:31;;;;;;;6.47;3.75;;;17.50;99.90;;;;;;4825997;29;20189;-89
2022/05/17 00:32:57;;;;;;;4.47;3.85;;;17.50;99.90;;;;;;4815521;29;20189;-87
2022/05/17 00:35:23;;;;;;;7.95;4.15;;;17.50;99.90;;;;;;4824606;29;20265;-85
2022/05/17 00:37:51;;;;;;;4.07;3.55;;;17.50;99.90;;;;;;4823587;29;20298;-86
2022/05/17 00:40:17;;;;;;;5.07;3.70;;;17.60;99.90;;;;;;4817243;29;20217;-86
2022/05/17 00:42:43;;;;;;;4.35;3.95;;;17.60;99.90;;;;;;4808350;29;20321;-83
2022/05/17 00:45:09;;;;;;;5.88;4.03;;;17.60;99.90;;;;;;4815206;29;20247;-86
2022/05/17 00:48:04;;;;;;;6.05;4.10;;;17.60;99.90;;;;;;4811275;29;20201;-85
2022/05/17 00:50:40;;;;;;;7.45;4.38;;;17.60;99.90;;;;;;4818537;29;20217;-87
2022/05/17 00:53:13;;;;;;;6.68;4.75;;;17.60;99.90;;;;;;4825342;29;20181;-88
2022/05/17 00:55:45;;;;;;;6.90;5.15;;;17.60;99.90;;;;;;4816289;29;20225;-86
2022/05/17 00:58:18;;;;;;;7.15;4.72;;;17.50;99.90;;;;;;4811751;29;20187;-88
2022/05/17 01:00:53;;;;;;;8.93;5.55;;;17.50;99.90;;;;;;4821889;29;20240;-85
2022/05/17 01:03:21;;;;;;;5.32;4.78;;;17.50;99.90;;;;;;4825273;29;20188;-84
2022/05/17 01:05:52;;;;;;;7.13;5.30;;;17.50;99.90;;;;;;4819730;29;20225;-90
2022/05/17 01:08:19;;;;;;;8.75;5.60;;;17.50;99.90;;;;;;4813008;29;20536;-85
2022/05/17 01:10:44;;;;;;;7.68;6.10;;;17.50;99.90;;;;;;4824323;29;20841;-88
2022/05/17 01:15:55;;;;;;;7.10;5.90;;;17.40;99.90;;;;;;4809729;29;20192;-89
2022/05/17 01:18:24;;;;;;;9.15;6.20;;;17.40;99.90;;;;;;4827896;29;20586;-88
2022/05/17 01:20:50;;;;;;;9.52;6.72;;;17.40;99.90;;;;;;4826047;29;20263;-89
2022/05/17 01:23:16;;;;;;;11.13;6.70;;;17.40;99.90;;;;;;4828831;29;20186;-88
2022/05/17 01:25:44;;;;;;;7.80;5.93;;;17.40;99.90;;;;;;4826772;29;20253;-88
2022/05/17 01:28:15;;;;;;;7.85;6.35;;;17.40;99.90;;;;;;4814835;29;20198;-88
2022/05/17 01:30:41;;;;;;;7.28;5.72;;;17.30;99.90;;;;;;4828864;29;20291;-89
2022/05/17 01:33:13;;;;;;;6.97;6.18;;;17.30;99.90;;;;;;4820198;29;20270;-89
2022/05/17 01:35:38;;;;;;;9.02;6.55;;;17.30;99.90;;;;;;4823615;29;20642;-83
2022/05/17 01:38:16;;;;;;;8.45;6.47;;;17.20;99.90;;;;;;4825489;29;20197;-88
2022/05/17 01:40:42;;;;;;;12.57;6.53;;;17.20;99.90;;;;;;4823487;29;20311;-88
2022/05/17 01:43:08;;;;;;;9.65;6.85;;;17.20;99.90;;;;;;4828183;29;20308;-89
2022/05/17 01:45:34;;;;;;;8.90;6.70;;;17.20;99.90;;;;;;4828609;29;20198;-87
2022/05/17 01:47:59;;;;;;;8.73;6.75;;;17.20;99.90;;;;;;4820960;29;20185;-89
2022/05/17 01:50:25;;;;;;;9.48;6.38;;;17.20;99.90;;;;;;4822625;29;20205;-89
2022/05/17 01:52:51;;;;;;;14.23;6.25;;;17.20;99.90;;;;;;4827773;29;20221;-89
2022/05/17 01:55:17;;;;;;;7.68;6.18;;;17.20;99.90;;;;;;4827594;29;20229;-90
2022/05/17 01:57:43;;;;;;;7.10;6.40;;;17.20;99.90;;;;;;4821467;29;20190;-89
2022/05/17 02:00:12;;;;;;;13.02;7.05;;;17.20;99.90;;;;;;4817424;29;20225;-91
2022/05/17 02:02:38;;;;;;;7.43;6.10;;;17.20;99.90;;;;;;4810332;29;20640;-90
2022/05/17 02:05:06;;;;;;;9.30;7.00;;;17.10;99.90;;;;;;4809888;29;20635;-82
2022/05/17 02:07:31;;;;;;;8.68;7.15;;;17.10;99.90;;;;;;4810272;29;20236;-81
2022/05/17 02:09:57;;;;;;;11.15;7.50;;;17.00;99.90;;;;;;4817966;29;20194;-83
2022/05/17 02:12:23;;;;;;;12.25;7.30;;;17.00;99.90;;;;;;4810025;29;20622;-86
2022/05/17 02:14:48;;;;;;;10.05;6.85;;;17.00;99.90;;;;;;4827049;29;20190;-83
2022/05/17 02:17:14;;;;;;;9.48;6.97;;;17.00;99.90;;;;;;4816194;29;20198;-81
2022/05/17 02:19:41;;;;;;;9.38;7.15;;;16.90;99.90;;;;;;4814911;29;20201;-88
2022/05/17 02:22:07;;;;;;;10.90;7.40;;;16.90;99.90;;;;;;4817665;29;20286;-87
2022/05/17 02:24:33;;;;;;;10.68;7.28;;;16.90;99.90;;;;;;4815010;29;20615;-87
2022/05/17 02:26:59;;;;;;;9.82;7.63;;;16.90;99.90;;;;;;4810799;29;20190;-83
2022/05/17 02:29:25;;;;;;;15.82;7.47;;;16.80;99.90;;;;;;4809729;29;20194;-90
2022/05/17 02:31:52;;;;;;;12.20;6.70;;;16.80;99.90;;;;;;4815391;29;20266;-91
2022/05/17 02:34:18;;;;;;;9.70;7.57;;;16.80;99.90;;;;;;5244661;24;20250;-91
2022/05/17 02:36:44;;;;;;;10.05;6.82;;;16.80;99.90;;;;;;4786830;29;20650;-89
2022/05/17 02:39:11;;;;;;;11.07;7.95;;;16.70;99.90;;;;;;4793758;29;20265;-90
2022/05/17 02:41:37;;;;;;;11.25;7.97;;;16.70;99.90;;;;;;4791345;29;20647;-89
2022/05/17 02:44:03;;;;;;;8.57;6.80;;;16.70;99.90;;;;;;4801915;29;20192;-90
2022/05/17 02:46:30;;;;;;;9.02;7.05;;;16.70;99.90;;;;;;4791226;29;20200;-90
2022/05/17 02:48:56;;;;;;;9.90;7.55;;;16.70;99.90;;;;;;4790902;30;20643;-89
2022/05/17 02:51:22;;;;;;;11.90;7.75;;;16.60;99.90;;;;;;4791588;29;20262;-89
2022/05/17 02:53:47;;;;;;;11.43;7.70;;;16.70;99.90;;;;;;4808946;29;20190;-90
2022/05/17 02:56:13;;;;;;;11.93;7.60;;;16.70;99.90;;;;;;4793004;29;20195;-90
2022/05/17 02:58:39;;;;;;;10.25;8.00;;;16.60;99.90;;;;;;4791110;29;20225;-90
2022/05/17 03:01:07;;;;;;;11.35;8.15;;;16.60;99.90;;;;;;4812687;29;20257;-90
2022/05/17 03:03:37;;;;;;;9.25;7.60;;;16.70;99.90;;;;;;4790842;30;20183;-87
2022/05/17 03:06:03;;;;;;;12.85;9.02;;;16.60;99.90;;;;;;4794611;29;20188;-88
2022/05/17 03:08:29;;;;;;;13.55;8.38;;;16.60;99.90;;;;;;4788378;29;20246;-90
2022/05/17 03:10:54;;;;;;;10.70;8.07;;;16.60;99.90;;;;;;4791138;29;20244;-90
2022/05/17 03:13:20;;;;;;;10.20;8.10;;;16.70;99.90;;;;;;4801566;29;20248;-89
2022/05/17 03:15:49;;;;;;;12.10;9.23;;;16.80;99.90;;;;;;4785743;30;20183;-89
2022/05/17 03:18:14;;;;;;;12.77;8.18;;;16.60;99.90;;;;;;4798467;29;20199;-90
2022/05/17 03:20:41;;;;;;;11.80;8.18;;;16.60;99.90;;;;;;4790107;30;20271;-89
2022/05/17 03:23:06;;;;;;;15.13;9.20;;;16.60;99.90;;;;;;4795358;29;20197;-89
2022/05/17 03:25:32;;;;;;;12.43;8.98;;;16.70;99.90;;;;;;4800128;29;20278;-89
2022/05/17 03:27:58;;;;;;;10.95;8.80;;;16.60;99.90;;;;;;4792028;29;20199;-88
2022/05/17 03:30:24;;;;;;;12.00;9.35;;;16.60;99.90;;;;;;4790238;30;20667;-89
2022/05/17 03:32:51;;;;;;;10.27;7.90;;;16.50;99.90;;;;;;4799793;29;20190;-89
2022/05/17 03:35:17;;;;;;;10.73;8.20;;;16.50;99.90;;;;;;4796387;29;20239;-90
2022/05/17 03:37:43;;;;;;;10.57;8.75;;;16.50;99.90;;;;;;4789559;29;20631;-89
2022/05/17 03:40:10;;;;;;;13.43;8.95;;;16.40;99.90;;;;;;4797046;29;20193;-87
2022/05/17 03:42:35;;;;;;;13.77;9.02;;;16.50;99.90;;;;;;4789656;29;20190;-89
2022/05/17 03:45:03;;;;;;;13.75;9.82;;;16.50;99.90;;;;;;4809523;29;20194;-88
2022/05/17 03:47:28;;;;;;;11.68;9.95;;;16.50;99.90;;;;;;4800258;29;20195;-89
2022/05/17 03:49:54;;;;;;;18.60;9.57;;;16.50;99.90;;;;;;4789782;30;20202;-89
2022/05/17 03:52:28;;;;;;;14.10;10.50;;;16.60;99.90;;;;;;4794495;29;20623;-89
2022/05/17 03:54:58;;;;;;;15.80;10.65;;;16.60;99.90;;;;;;4798505;29;20221;-89
2022/05/17 03:57:28;;;;;;;17.10;11.35;;;16.60;99.90;;;;;;4791814;29;20195;-89
2022/05/17 03:59:54;;;;;;;15.60;10.98;;;16.60;99.90;;;;;;4794984;29;20215;-88
2022/05/17 04:02:22;;;;;;;13.48;10.68;;;16.60;99.90;;;;;;4789651;30;20196;-89
2022/05/17 04:04:52;;;;;;;14.60;11.05;;;16.70;99.90;;;;;;4796326;29;20194;-88
2022/05/17 04:07:17;;;;;;;17.88;11.63;;;16.60;99.90;;;;;;4798166;29;20192;-88
2022/05/17 04:09:43;;;;;;;17.30;11.90;;;16.60;99.90;;;;;;4789516;30;20183;-88
2022/05/17 04:12:10;;;;;;;15.88;12.13;;;16.60;99.90;;;;;;4789201;29;20266;-88
2022/05/17 04:14:36;;;;;;;13.65;11.38;;;16.60;99.90;;;;;;4789338;29;20278;-89
2022/05/17 04:17:02;;;;;;;19.17;11.93;;;16.60;99.90;;;;;;4789856;29;20258;-88
2022/05/17 04:19:28;;;;;;;15.70;11.48;;;16.60;99.90;;;;;;4800761;29;20196;-89
2022/05/17 04:21:53;;;;;;;15.00;11.63;;;16.60;99.90;;;;;;4788940;29;20336;-88
2022/05/17 04:24:19;;;;;;;16.17;11.80;;;16.60;99.90;;;;;;4791427;29;20199;-87
2022/05/17 04:26:45;;;;;;;18.48;12.88;;;16.60;99.90;;;;;;4795424;29;20199;-87
2022/05/17 04:29:11;;;;;;;18.45;12.40;;;16.60;99.90;;;;;;4789251;29;20198;-88
2022/05/17 04:31:37;;;;;;;19.10;12.60;;;16.70;99.90;;;;;;4789664;30;20191;-88
2022/05/17 04:34:03;;;;;;;17.65;12.23;;;16.80;99.90;;;;;;4804921;29;20244;-88
2022/05/17 04:36:29;;;;;;;17.33;12.73;;;16.80;99.90;;;;;;4792099;29;20187;-88
2022/05/17 04:38:55;;;;;;;19.30;12.90;;;16.90;99.90;;;;;;4789626;29;20298;-85
2022/05/17 04:41:21;;;;;;;18.05;13.50;;;16.90;99.90;;;;;;4796855;29;20325;-88
2022/05/17 04:43:47;;;;;;;18.60;13.65;;;17.00;99.90;;;;;;4794186;29;20190;-89
2022/05/17 04:46:13;;;;;;;19.10;13.20;;;17.00;99.90;;;;;;4790898;29;20248;-88
2022/05/17 04:48:40;;;;;;;22.45;14.43;;;17.10;99.90;;;;;;4788943;29;20191;-88
2022/05/17 04:51:11;;;;;;;19.80;14.40;;;17.10;99.90;;;;;;4806519;29;20207;-88
2022/05/17 04:53:38;;;;;;;23.10;14.15;;;17.10;99.90;;;;;;4789168;29;20195;-89
2022/05/17 04:56:06;;;;;;;20.48;14.35;;;17.10;99.90;;;;;;4789162;30;20199;-89
2022/05/17 04:58:32;;;;;;;22.42;14.32;;;17.10;99.90;;;;;;4788148;30;20628;-88
2022/05/17 05:00:58;;;;;;;19.60;14.10;;;17.10;99.90;;;;;;4789028;30;20211;-89
2022/05/17 05:03:24;;;;;;;20.83;14.15;;;17.00;99.90;;;;;;4789209;30;20188;-88
2022/05/17 05:05:50;;;;;;;19.88;13.82;;;17.00;99.90;;;;;;4795155;29;20255;-89
2022/05/17 05:08:16;;;;;;;20.30;14.63;;;17.00;99.90;;;;;;4789056;30;20187;-88
2022/05/17 05:10:44;;;;;;;21.15;14.68;;;17.00;99.90;;;;;;4801671;29;20191;-88
2022/05/17 05:13:21;;;;;;;21.42;14.80;;;17.00;99.90;;;;;;4792914;29;20235;-89
2022/05/17 05:15:47;;;;;;;22.98;15.55;;;16.90;99.90;;;;;;4791015;29;20194;-88
2022/05/17 05:18:13;;;;;;;20.92;15.25;;;16.90;99.90;;;;;;4801522;29;20293;-88
2022/05/17 05:20:39;;;;;;;25.58;16.95;;;16.90;99.90;;;;;;4790913;29;20267;-87
2022/05/17 05:23:06;;;;;;;20.25;15.23;;;16.90;99.90;;;;;;4794688;29;20191;-86
2022/05/17 05:25:32;;;;;;;25.05;15.90;;;16.80;99.90;;;;;;4805167;29;20190;-87
2022/05/17 05:27:58;;;;;;;24.17;15.90;;;16.80;99.90;;;;;;4794500;29;20244;-88
2022/05/17 05:30:24;;;;;;;19.30;14.60;;;16.70;99.90;;;;;;4789644;29;20175;-88
2022/05/17 05:32:50;;;;;;;20.65;15.32;;;16.70;99.90;;;;;;4786711;29;20215;-88
2022/05/17 05:35:20;;;;;;;22.05;15.98;;;16.70;99.90;;;;;;4799784;29;20245;-89
2022/05/17 05:37:46;;;;;;;22.65;15.70;;;16.70;99.90;;;;;;4790643;29;20196;-88
2022/05/17 05:40:12;;;;;;;25.40;16.67;;;16.70;99.90;;;;;;4786263;29;20278;-88
2022/05/17 05:42:39;;;;;;;23.90;16.30;;;16.80;99.90;;;;;;4788320;30;20508;-89
2022/05/17 05:45:06;;;;;;;25.95;16.83;;;16.80;99.90;;;;;;4788424;29;20187;-88
2022/05/17 05:47:33;;;;;;;21.30;16.85;;;16.90;99.90;;;;;;4789450;29;20273;-90
2022/05/17 05:49:59;;;;;;;22.95;17.58;;;17.00;99.90;;;;;;4789772;30;20179;-89
2022/05/17 05:52:25;;;;;;;25.35;17.10;;;17.00;99.90;;;;;;4789400;29;20646;-87
2022/05/17 05:54:51;;;;;;;24.10;16.25;;;17.00;99.90;;;;;;4789422;30;20260;-88
2022/05/17 05:57:16;;;;;;;21.02;15.32;;;17.00;99.90;;;;;;4791783;29;20244;-87
2022/05/17 05:59:43;;;;;;;24.48;16.58;;;17.00;99.90;;;;;;4807235;29;20186;-88
2022/05/17 06:02:09;;;;;;;23.27;15.82;;;17.00;99.90;;;;;;4809203;29;20242;-87
2022/05/17 06:04:35;;;;;;;24.25;17.10;;;17.00;99.90;;;;;;4809451;29;20243;-89
2022/05/17 06:07:01;;;;;;;21.50;16.83;;;17.00;99.90;;;;;;4810230;29;20186;-88
2022/05/17 06:09:27;;;;;;;21.67;16.27;;;17.00;99.90;;;;;;4810601;29;20262;-88
2022/05/17 06:11:53;;;;;;;28.13;16.88;;;17.10;99.90;;;;;;4810447;29;20607;-87
2022/05/17 06:14:22;;;;;;;24.05;17.42;;;17.10;99.90;;;;;;4805152;29;20248;-87
2022/05/17 06:16:49;;;;;;;22.38;16.08;;;17.10;99.90;;;;;;4783972;30;20194;-88
2022/05/17 06:19:15;;;;;;;26.13;17.02;;;17.20;99.90;;;;;;4781158;30;20194;-90
2022/05/17 06:21:41;;;;;;;20.85;16.63;;;17.20;99.90;;;;;;4777657;30;20290;-87
2022/05/17 06:24:08;;;;;;;24.63;17.33;;;17.30;99.90;;;;;;4777785;30;20188;-88
2022/05/17 06:26:34;;;;;;;24.80;16.00;;;17.30;99.90;;;;;;4791523;30;20211;-86
2022/05/17 06:29:00;;;;;;;25.35;17.75;;;17.30;99.90;;;;;;4783511;30;20238;-88
2022/05/17 06:31:26;;;;;;;28.98;18.85;;;17.40;99.90;;;;;;4789597;29;20563;-89
2022/05/17 06:33:52;;;;;;;28.00;18.55;;;17.40;99.90;;;;;;4792064;29;20378;-86
2022/05/17 06:36:17;;;;;;;23.48;16.67;;;17.60;99.90;;;;;;4798932;29;20203;-87
2022/05/17 06:38:43;;;;;;;24.83;17.20;;;17.70;99.90;;;;;;4787746;29;20639;-87
2022/05/17 06:41:08;;;;;;;23.90;17.48;;;17.70;99.90;;;;;;4791366;30;20267;-87
2022/05/17 06:43:34;;;;;;;19.90;15.52;;;17.80;99.90;;;;;;4791546;29;20247;-88
2022/05/17 06:46:01;;;;;;;25.38;16.30;;;17.90;99.90;;;;;;4781093;29;20538;-86
2022/05/17 06:48:28;;;;;;;25.75;17.02;;;18.00;99.90;;;;;;4773460;30;20651;-86
2022/05/17 06:50:54;;;;;;;29.25;17.25;;;18.20;99.90;;;;;;4772182;30;20176;-87
2022/05/17 06:53:20;;;;;;;25.52;16.35;;;18.30;99.90;;;;;;4773513;30;20184;-84
2022/05/17 06:55:45;;;;;;;22.13;16.23;;;18.30;99.90;;;;;;4790567;29;20600;-84
2022/05/17 06:58:11;;;;;;;29.73;17.90;;;18.40;99.90;;;;;;4772122;29;20196;-86
2022/05/17 07:00:37;;;;;;;24.80;16.70;;;18.50;99.90;;;;;;4772930;30;20216;-87
2022/05/17 07:03:03;;;;;;;25.40;17.65;;;18.50;99.90;;;;;;4773115;30;20284;-87
2022/05/17 07:05:29;;;;;;;21.98;15.82;;;18.60;99.90;;;;;;4802991;29;20186;-87
2022/05/17 07:08:00;;;;;;;27.75;17.05;;;18.60;99.90;;;;;;4809079;29;20183;-86
2022/05/17 07:13:10;;;;;;;26.27;16.70;;;18.90;99.90;;;;;;4808941;29;20587;-87
2022/05/17 07:15:48;;;;;;;22.67;15.73;;;19.10;99.90;;;;;;4808473;29;20178;-86
2022/05/17 07:18:17;;;;;;;23.83;16.13;;;19.10;99.90;;;;;;4798303;29;20244;-85
2022/05/17 07:20:44;;;;;;;23.75;15.82;;;19.30;99.90;;;;;;4789934;29;20211;-87
2022/05/17 07:23:10;;;;;;;24.52;15.68;;;19.30;99.90;;;;;;4774349;29;20200;-86
2022/05/17 07:25:40;;;;;;;27.02;16.80;;;19.30;99.90;;;;;;4785076;30;20237;-85
2022/05/17 07:28:07;;;;;;;22.95;15.20;;;19.10;99.90;;;;;;4780225;29;20615;-85
2022/05/17 07:30:32;;;;;;;25.60;16.10;;;19.10;99.90;;;;;;4780832;30;20605;-87
2022/05/17 07:32:58;;;;;;;30.20;17.30;;;19.00;99.90;;;;;;4779380;30;20184;-87
2022/05/17 07:35:24;;;;;;;24.10;15.55;;;19.00;99.90;;;;;;4780980;29;20259;-86
2022/05/17 07:37:50;;;;;;;20.98;15.23;;;18.90;99.90;;;;;;4784555;29;20197;-85
2022/05/17 07:40:16;;;;;;;22.40;14.07;;;18.80;99.90;;;;;;4804104;29;20194;-85
2022/05/17 07:42:42;;;;;;;24.92;15.77;;;18.80;99.90;;;;;;4790292;30;20192;-85
2022/05/17 07:45:09;;;;;;;21.42;14.65;;;18.80;99.90;;;;;;4790294;30;20179;-86
2022/05/17 07:47:35;;;;;;;19.92;13.25;;;19.00;99.90;;;;;;4789764;29;20639;-88
2022/05/17 07:50:03;;;;;;;30.65;14.73;;;19.20;99.90;;;;;;4788827;29;20190;-87
2022/05/17 07:52:31;;;;;;;21.55;15.48;;;19.40;99.90;;;;;;4772174;30;20181;-86
2022/05/17 07:54:59;;;;;;;22.13;14.63;;;19.70;99.90;;;;;;4783220;29;20546;-86
2022/05/17 07:57:25;;;;;;;20.55;13.45;;;20.10;99.90;;;;;;4790629;30;20278;-85
2022/05/17 07:59:51;;;;;;;23.75;15.00;;;20.30;99.90;;;;;;4790078;29;20220;-86
2022/05/17 08:02:18;;;;;;;21.42;13.40;;;20.50;99.90;;;;;;4790022;30;20286;-86
2022/05/17 08:04:45;;;;;;;24.95;13.52;;;20.60;99.90;;;;;;4794543;29;20191;-85
2022/05/17 08:07:11;;;;;;;16.98;12.07;;;20.60;99.90;;;;;;4773700;29;20196;-87
2022/05/17 08:09:38;;;;;;;15.30;11.27;;;20.70;99.90;;;;;;4772246;30;20292;-85
2022/05/17 08:12:07;;;;;;;18.38;12.93;;;20.80;99.90;;;;;;4771933;30;20524;-84
2022/05/17 08:14:33;;;;;;;19.65;12.15;;;20.90;99.90;;;;;;4781002;29;20526;-84
2022/05/17 08:16:59;;;;;;;19.77;12.48;;;20.90;99.90;;;;;;4806655;29;20683;-86
2022/05/17 08:19:25;;;;;;;18.67;12.02;;;21.00;99.90;;;;;;4807836;29;20187;-85
2022/05/17 08:21:50;;;;;;;17.75;10.68;;;21.00;99.90;;;;;;4803740;29;20246;-86
2022/05/17 08:24:16;;;;;;;16.30;11.43;;;21.10;99.90;;;;;;4794768;29;20195;-85
2022/05/17 08:29:26;;;;;;;20.17;11.95;;;21.20;99.90;;;;;;4771857;30;20218;-84
2022/05/17 08:34:36;;;;;;;16.83;10.25;;;21.50;99.90;;;;;;4788096;29;20629;-85
2022/05/17 08:37:01;;;;;;;17.38;10.68;;;21.60;99.90;;;;;;4789338;29;20663;-86
2022/05/17 08:39:28;;;;;;;16.52;10.30;;;21.60;99.90;;;;;;4789430;29;20188;-85
2022/05/17 08:42:00;;;;;;;14.25;10.45;;;21.50;99.90;;;;;;4789494;29;20207;-85
2022/05/17 08:44:50;;;;;;;14.35;10.20;;;21.50;99.90;;;;;;4788938;30;20187;-85
2022/05/17 08:47:31;;;;;;;16.92;8.65;;;21.60;99.90;;;;;;4788577;29;20207;-84
2022/05/17 08:50:02;;;;;;;14.00;8.43;;;21.80;99.90;;;;;;4788889;30;20179;-84
2022/05/17 08:52:31;;;;;;;14.85;8.60;;;21.80;99.90;;;;;;4789006;30;20171;-84
2022/05/17 08:55:15;;;;;;;17.45;8.93;;;21.80;99.90;;;;;;4787651;30;20190;-84
2022/05/17 08:57:48;;;;;;;19.02;8.82;;;21.90;99.90;;;;;;4803539;29;20236;-84
2022/05/17 09:00:17;;;;;;;17.13;8.57;;;22.00;99.90;;;;;;4785487;30;20183;-84
2022/05/17 09:02:44;;;;;;;14.68;8.93;;;21.70;99.90;;;;;;4789152;30;20180;-84
2022/05/17 09:05:13;;;;;;;14.07;8.15;;;21.80;99.90;;;;;;4788514;29;20187;-83
2022/05/17 09:07:44;;;;;;;14.45;8.68;;;21.90;99.90;;;;;;4777291;30;20192;-84
2022/05/17 09:10:34;;;;;;;12.25;8.50;;;21.90;99.90;;;;;;4772599;30;20271;-84
2022/05/17 09:13:10;;;;;;;14.60;7.97;;;21.90;99.90;;;;;;4787755;29;20183;-85
2022/05/17 09:15:36;;;;;;;15.00;7.97;;;21.70;99.90;;;;;;4788929;30;20623;-84
2022/05/17 09:18:09;;;;;;;12.57;7.13;;;21.70;99.90;;;;;;4788941;30;20187;-83
2022/05/17 09:20:37;;;;;;;10.07;5.85;;;22.00;99.90;;;;;;4788712;30;20219;-84
2022/05/17 09:23:03;;;;;;;14.30;4.70;;;22.30;99.90;;;;;;4788895;29;20199;-83
2022/05/17 09:25:48;;;;;;;8.90;5.32;;;22.70;99.90;;;;;;4785827;29;20188;-82
2022/05/17 09:28:19;;;;;;;11.55;5.03;;;22.90;99.90;;;;;;4787935;30;20624;-82
2022/05/17 09:30:46;;;;;;;8.65;4.88;;;22.70;99.90;;;;;;4784768;29;20207;-83
2022/05/17 09:33:18;;;;;;;9.82;5.10;;;22.40;99.90;;;;;;4788622;29;20229;-83
2022/05/17 09:35:56;;;;;;;11.98;4.85;;;22.20;99.90;;;;;;4804536;29;20241;-82
2022/05/17 09:38:21;;;;;;;10.85;6.18;;;22.00;99.90;;;;;;4810111;29;20171;-84
2022/05/17 09:40:50;;;;;;;11.30;5.32;;;21.90;99.90;;;;;;4809839;29;20256;-82
2022/05/17 09:43:23;;;;;;;13.27;5.45;;;21.70;99.90;;;;;;4791916;29;20234;-84
2022/05/17 09:45:59;;;;;;;9.02;4.30;;;21.60;99.90;;;;;;4792084;30;20198;-83
2022/05/17 09:54:33;;;;;;;9.65;4.68;;;22.90;99.90;;;;;;4777332;30;20256;-82
2022/05/17 09:57:25;;;;;;;10.50;4.70;;;23.10;99.90;;;;;;4772841;29;20215;-82
2022/05/17 10:00:01;;;;;;;6.80;4.65;;;23.30;99.90;;;;;;4772841;29;20733;-82
2022/05/17 10:02:29;;;;;;;7.65;4.32;;;23.50;99.90;;;;;;4773796;30;20292;-82
2022/05/17 10:04:56;;;;;;;9.13;4.38;;;23.60;99.90;;;;;;4791839;29;20227;-83
2022/05/17 10:07:28;;;;;;;9.65;5.22;;;23.80;99.90;;;;;;4808552;29;20228;-82
2022/05/17 10:09:53;;;;;;;9.02;5.10;;;24.00;99.90;;;;;;4786617;30;20258;-83
2022/05/17 10:12:33;;;;;;;8.68;4.28;;;24.00;99.90;;;;;;4773500;30;20266;-84
2022/05/17 10:15:06;;;;;;;10.23;4.60;;;23.60;99.90;;;;;;4782164;29;20213;-83
2022/05/17 10:17:43;;;;;;;6.85;3.47;;;23.20;99.90;;;;;;4791733;30;20201;-82
2022/05/17 10:20:17;;;;;;;8.57;3.65;;;23.20;99.90;;;;;;4791093;30;20235;-83
2022/05/17 10:23:01;;;;;;;6.63;3.33;;;23.20;99.90;;;;;;4791375;29;20217;-82
2022/05/17 10:25:43;;;;;;;6.28;3.03;;;23.00;99.90;;;;;;4790467;30;20198;-82
2022/05/17 10:28:25;;;;;;;5.00;2.85;;;22.90;99.90;;;;;;4788552;30;20183;-82
2022/05/17 10:31:01;;;;;;;8.63;3.00;;;23.20;99.90;;;;;;4773453;30;20168;-81
2022/05/17 10:33:35;;;;;;;5.65;2.30;;;23.60;99.90;;;;;;4772147;29;20191;-81
2022/05/17 10:36:14;;;;;;;7.30;2.83;;;23.90;99.90;;;;;;4789550;29;20230;-81
2022/05/17 10:38:54;;;;;;;7.40;2.95;;;24.10;99.90;;;;;;4773357;30;20639;-82
2022/05/17 10:41:19;;;;;;;6.45;2.88;;;23.80;99.90;;;;;;4773953;29;20289;-82
2022/05/17 10:43:48;;;;;;;7.93;3.30;;;23.40;99.90;;;;;;4790918;30;20191;-82
2022/05/17 10:46:27;;;;;;;5.38;2.45;;;23.10;99.90;;;;;;4789468;29;20187;-83
2022/05/17 10:49:23;;;;;;;7.82;2.47;;;22.90;99.90;;;;;;4791131;29;20186;-81
2022/05/17 10:52:23;;;;;;;6.75;2.17;;;22.70;99.90;;;;;;4790865;30;20559;-82
2022/05/17 10:55:00;;;;;;;6.07;2.05;;;22.50;99.90;;;;;;4790762;30;20220;-83
2022/05/17 10:57:26;;;;;;;6.82;1.90;;;22.30;99.90;;;;;;4791036;30;20176;-82
2022/05/17 11:00:18;;;;;;;4.47;1.95;;;22.50;99.90;;;;;;4789530;30;20266;-83
2022/05/17 11:02:59;;;;;;;5.70;2.20;;;23.00;99.90;;;;;;4790632;29;20183;-81
2022/05/17 11:06:02;;;;;;;4.20;1.70;;;23.50;99.90;;;;;;4803515;29;20282;-88
2022/05/17 11:08:52;;;;;;;4.93;1.60;;;23.90;99.90;;;;;;4809090;29;20214;-83
2022/05/17 11:11:44;;;;;;;6.95;1.80;;;24.40;99.90;;;;;;4807567;29;20189;-84
2022/05/17 11:14:16;;;;;;;6.15;1.30;;;24.80;99.90;;;;;;4803823;29;20190;-83
2022/05/17 11:17:15;;;;;;;4.82;1.30;;;25.10;97.90;;;;;;4808310;29;20266;-82
2022/05/17 11:19:51;;;;;;;8.73;1.55;;;25.20;97.70;;;;;;4792916;29;20636;-82
2022/05/17 11:22:45;;;;;;;4.35;1.88;;;25.10;96.80;;;;;;4772062;30;20237;-83
2022/05/17 11:25:24;;;;;;;2.58;1.35;;;25.10;97.90;;;;;;4772670;30;20180;-82
2022/05/17 11:28:21;;;;;;;4.88;2.00;;;24.80;96.30;;;;;;4770868;29;20180;-83
2022/05/17 11:31:20;;;;;;;4.50;1.75;;;24.30;98.30;;;;;;4770954;29;20195;-82
2022/05/17 11:33:46;;;;;;;3.83;1.50;;;23.90;96.80;;;;;;4771816;29;20213;-82
2022/05/17 11:36:31;;;;;;;3.65;1.70;;;23.50;98.40;;;;;;4808087;29;20545;-82
2022/05/17 11:38:58;;;;;;;6.55;1.63;;;23.10;98.60;;;;;;4807065;29;20206;-82
2022/05/17 11:41:44;;;;;;;4.90;1.38;;;22.90;99.30;;;;;;4808217;29;20226;-83
2022/05/17 11:44:10;;;;;;;5.45;2.20;;;22.80;98.10;;;;;;4808171;29;20611;-83
2022/05/17 11:46:38;;;;;;;6.22;1.42;;;22.70;99.10;;;;;;4808213;29;20214;-83
2022/05/17 11:49:07;;;;;;;3.25;1.40;;;22.60;99.70;;;;;;4807044;29;20178;-83
2022/05/17 11:51:38;;;;;;;4.00;1.42;;;22.70;99.90;;;;;;4807889;29;20214;-83
2022/05/17 11:54:08;;;;;;;3.08;1.27;;;22.60;98.90;;;;;;4806842;29;20178;-83
2022/05/17 11:56:38;;;;;;;3.42;1.33;;;22.40;98.30;;;;;;4806789;29;20328;-83
2022/05/17 11:59:09;;;;;;;4.75;1.38;;;22.60;99.60;;;;;;4806076;29;20186;-83
2022/05/17 12:01:35;;;;;;;3.50;0.98;;;23.10;98.90;;;;;;4807927;29;20218;-83
2022/05/17 12:04:28;;;;;;;4.88;1.40;;;23.50;95.80;;;;;;4803188;29;20228;-83
2022/05/17 12:06:54;;;;;;;5.60;1.50;;;23.80;96.20;;;;;;4806428;29;20486;-83
2022/05/17 12:09:22;;;;;;;2.03;0.90;;;24.30;95.70;;;;;;4802123;29;20191;-82
2022/05/17 12:11:51;;;;;;;2.65;1.27;;;24.70;95.10;;;;;;4772335;30;20188;-84
2022/05/17 12:14:30;;;;;;;3.35;1.42;;;25.00;94.90;;;;;;4771899;30;20180;-84
2022/05/17 12:17:02;;;;;;;2.65;1.08;;;25.20;93.20;;;;;;4771933;30;20517;-83
2022/05/17 12:20:10;;;;;;;2.97;1.25;;;25.50;94.20;;;;;;4771592;30;20192;-83
2022/05/17 12:23:09;;;;;;;4.03;1.23;;;25.60;94.20;;;;;;4770272;30;20232;-83
2022/05/17 12:25:42;;;;;;;3.13;1.08;;;25.70;90.80;;;;;;4781972;30;20187;-83
2022/05/17 12:28:21;;;;;;;5.20;1.10;;;25.70;92.80;;;;;;4786297;30;20184;-85
2022/05/17 12:31:00;;;;;;;2.67;0.90;;;25.90;93.10;;;;;;4770574;29;20242;-84
2022/05/17 12:33:29;;;;;;;4.75;1.25;;;25.90;90.70;;;;;;4771609;30;20212;-84
2022/05/17 12:36:12;;;;;;;3.10;1.02;;;26.20;92.00;;;;;;4802865;29;20550;-84
2022/05/17 12:44:24;;;;;;;3.70;1.30;;;25.80;90.90;;;;;;4790924;29;20266;-84
2022/05/17 12:46:54;;;;;;;2.55;1.10;;;25.70;90.10;;;;;;4773859;29;20275;-84
2022/05/17 12:49:26;;;;;;;2.42;1.10;;;25.50;91.20;;;;;;4781516;29;20191;-83
2022/05/17 12:52:14;;;;;;;1.95;1.05;;;25.50;90.80;;;;;;4771205;30;20257;-83
2022/05/17 12:54:40;;;;;;;2.97;1.05;;;25.20;90.30;;;;;;4785212;30;20527;-83
2022/05/17 12:57:17;;;;;;;3.42;1.15;;;24.90;90.40;;;;;;4788068;29;20187;-84
2022/05/17 12:59:43;;;;;;;6.07;1.67;;;25.20;90.10;;;;;;4789324;29;20186;-85
2022/05/17 13:02:09;;;;;;;3.17;1.33;;;25.50;90.60;;;;;;4787465;29;20218;-84
2022/05/17 13:04:37;;;;;;;4.03;1.70;;;25.90;90.50;;;;;;4794524;29;20194;-85
2022/05/17 13:07:22;;;;;;;3.00;1.13;;;26.10;90.70;;;;;;4805651;29;20618;-84
2022/05/17 13:10:06;;;;;;;3.33;1.27;;;26.20;90.30;;;;;;4808645;29;20642;-85
2022/05/17 13:12:37;;;;;;;3.25;1.20;;;25.90;89.00;;;;;;4810722;29;20522;-84
2022/05/17 13:15:08;;;;;;;2.20;1.13;;;25.70;90.00;;;;;;4810810;29;20167;-85